KADW/ADW METAR and TAF weather

Enter ICAO airport designator
Station Type Date Time Source
KADW METAR 2022/12/04 12:55 UTC NOAA

KADW 041255Z AUTO 35005KT 10SM CLR 02/M04 A3026 RMK AO2 SLP255 T00201039 $


Station Type Date Time Source
KADW Decoded METAR 2022/12/04 12:55 UTC NOAA

Camp Springs / Andrews Air Force Base, MD, United States (KADW) 38-49N 076-51W 88M
Dec 04, 2022 - 07:55 AM EST / 2022.12.04 1255 UTC
Wind: from the N (350 degrees) at 6 MPH (5 KT):0
Visibility: 10 mile(s):0
Sky conditions: clear
Temperature: 35.6 F (2.0 C)
Dew Point: 25.0 F (-3.9 C)
Relative Humidity: 64%
Pressure (altimeter): 30.26 in. Hg (1024 hPa)
ob: KADW 041255Z AUTO 35005KT 10SM CLR 02/M04 A3026 RMK AO2 SLP255 T00201039
cycle: 13

Station Type Date Time Source
KADW TAF 2022/12/04 09:13 UTC NOAA

TAF KADW 040900Z 0409/0515 35012KT 9999 SKC QNH3024INS
BECMG 0411/0412 33009KT 9999 FEW250 QNH3018INS
BECMG 0420/0421 27009KT 9999 SKC QNH3017INS TX06/0420Z TNM01/0509Z

Example: see airport list